createdAt,value
2019-05-18T00:02:28.804Z,6.10
2019-05-18T00:05:00.219Z,6.05
2019-05-18T00:07:31.668Z,6.35
2019-05-18T00:10:03.024Z,5.55
2019-05-18T00:12:35.510Z,5.58
2019-05-18T00:15:08.697Z,6.15
2019-05-18T00:17:40.104Z,6.47
2019-05-18T00:20:14.614Z,6.35
2019-05-18T00:22:46.007Z,6.47
2019-05-18T00:25:17.452Z,5.65
2019-05-18T00:27:49.932Z,6.10
2019-05-18T00:30:25.071Z,5.95
2019-05-18T00:32:56.495Z,5.90
2019-05-18T00:35:27.961Z,6.15
2019-05-18T00:37:59.388Z,5.80
2019-05-18T00:40:30.793Z,5.92
2019-05-18T00:43:02.196Z,5.80
2019-05-18T00:45:33.684Z,5.70
2019-05-18T00:48:05.147Z,5.50
2019-05-18T00:50:36.551Z,6.20
2019-05-18T00:53:07.950Z,5.55
2019-05-18T00:55:39.390Z,5.87
2019-05-18T00:58:11.737Z,6.12
2019-05-18T01:00:43.169Z,6.28
2019-05-18T01:03:14.571Z,6.37
2019-05-18T01:05:46.008Z,5.95
2019-05-18T01:08:17.433Z,5.97
2019-05-18T01:10:49.878Z,6.00
2019-05-18T01:13:21.348Z,5.85
2019-05-18T01:15:52.747Z,6.17
2019-05-18T01:18:25.157Z,5.80
2019-05-18T01:20:56.581Z,5.25
2019-05-18T01:23:28.099Z,5.50
2019-05-18T01:25:59.508Z,5.67
2019-05-18T01:28:32.097Z,5.83
2019-05-18T01:31:03.598Z,5.90
2019-05-18T01:33:36.005Z,6.42
2019-05-18T01:36:07.416Z,5.83
2019-05-18T01:38:42.073Z,6.25
2019-05-18T01:41:13.771Z,6.17
2019-05-18T01:43:45.329Z,6.05
2019-05-18T01:46:16.732Z,5.92
2019-05-18T01:48:48.088Z,6.03
2019-05-18T01:51:19.591Z,6.00
2019-05-18T01:53:51.889Z,5.53
2019-05-18T01:56:23.357Z,5.85
2019-05-18T01:58:55.779Z,6.58
2019-05-18T02:01:29.683Z,6.17
2019-05-18T02:04:04.917Z,6.03
2019-05-18T02:06:36.792Z,5.65
2019-05-18T02:09:09.888Z,5.83
2019-05-18T02:11:41.338Z,6.42
2019-05-18T02:14:12.936Z,5.97
2019-05-18T02:16:44.386Z,5.22
2019-05-18T02:19:15.785Z,5.85
2019-05-18T02:21:48.172Z,5.83
2019-05-18T02:24:20.619Z,5.78
2019-05-18T02:26:53.912Z,5.75
2019-05-18T02:29:27.571Z,5.20
2019-05-18T02:31:59.000Z,5.78
2019-05-18T02:34:32.157Z,5.80
2019-05-18T02:37:03.681Z,5.20
2019-05-18T02:39:36.692Z,5.60
2019-05-18T02:42:10.681Z,5.95
2019-05-18T02:44:42.121Z,5.80
2019-05-18T02:47:13.539Z,5.85
2019-05-18T02:49:46.354Z,5.22
2019-05-18T02:52:17.898Z,5.45
2019-05-18T02:54:49.336Z,5.20
2019-05-18T02:57:21.853Z,5.47
2019-05-18T02:59:53.423Z,5.90
2019-05-18T03:02:24.826Z,6.70
2019-05-18T03:04:57.211Z,7.12
2019-05-18T03:07:28.895Z,6.05
2019-05-18T03:10:00.297Z,6.05
2019-05-18T03:12:31.722Z,6.03
2019-05-18T03:15:03.465Z,5.60
2019-05-18T03:17:37.152Z,5.47
2019-05-18T03:20:11.590Z,5.60
2019-05-18T03:22:43.171Z,6.00
2019-05-18T03:25:14.753Z,5.30
2019-05-18T03:27:46.220Z,5.72
2019-05-18T03:30:19.156Z,5.50
2019-05-18T03:32:51.527Z,5.12
2019-05-18T03:35:23.021Z,5.83
2019-05-18T03:37:54.554Z,5.97
2019-05-18T03:40:26.101Z,5.50
2019-05-18T03:42:57.774Z,5.30
2019-05-18T03:45:30.371Z,5.47
2019-05-18T03:48:01.956Z,5.62
2019-05-18T03:50:34.568Z,6.00
2019-05-18T03:53:06.574Z,5.60
2019-05-18T03:55:38.021Z,5.65
2019-05-18T03:58:09.674Z,5.40
2019-05-18T04:00:41.169Z,5.50
2019-05-18T04:03:14.621Z,5.65
2019-05-18T04:05:46.074Z,5.85
2019-05-18T04:08:18.432Z,5.62
2019-05-18T04:10:49.946Z,5.60
2019-05-18T04:13:21.571Z,5.20
2019-05-18T04:15:53.018Z,5.10
2019-05-18T04:18:24.662Z,5.42
2019-05-18T04:20:56.295Z,5.80
2019-05-18T04:23:27.747Z,5.50
2019-05-18T04:25:59.187Z,5.40
2019-05-18T04:28:30.849Z,5.03
2019-05-18T04:31:02.379Z,5.58
2019-05-18T04:33:33.916Z,5.05
2019-05-18T04:36:06.238Z,5.35
2019-05-18T04:38:37.643Z,5.42
2019-05-18T04:41:09.819Z,5.40
2019-05-18T04:43:41.298Z,5.75
2019-05-18T04:46:13.018Z,5.90
2019-05-18T04:48:44.565Z,5.35
2019-05-18T04:51:15.982Z,5.53
2019-05-18T04:53:47.510Z,5.78
2019-05-18T04:56:18.946Z,6.33
2019-05-18T04:58:55.528Z,6.00
2019-05-18T05:01:27.079Z,6.25
2019-05-18T05:03:58.716Z,5.40
2019-05-18T05:06:31.226Z,5.75
2019-05-18T05:09:08.048Z,5.42
2019-05-18T05:11:39.508Z,5.78
2019-05-18T05:14:12.336Z,5.87
2019-05-18T05:16:44.848Z,5.90
2019-05-18T05:19:19.137Z,5.80
2019-05-18T05:21:50.550Z,5.97
2019-05-18T05:24:22.906Z,5.65
2019-05-18T05:26:55.358Z,5.75
2019-05-18T05:29:28.045Z,5.55
2019-05-18T05:31:59.416Z,5.67
2019-05-18T05:34:33.017Z,5.75
2019-05-18T05:37:05.470Z,5.67
2019-05-18T05:39:36.869Z,6.05
2019-05-18T05:42:10.195Z,6.30
2019-05-18T05:44:41.698Z,5.70
2019-05-18T05:47:14.307Z,5.33
2019-05-18T05:49:45.760Z,6.00
2019-05-18T05:52:18.184Z,6.00
2019-05-18T05:54:49.678Z,5.85
2019-05-18T05:57:21.107Z,5.75
2019-05-18T05:59:52.609Z,5.92
2019-05-18T06:02:24.971Z,5.78
2019-05-18T06:04:56.465Z,5.90
2019-05-18T06:07:31.873Z,6.12
2019-05-18T06:10:03.824Z,6.05
2019-05-18T06:12:35.250Z,6.00
2019-05-18T06:15:09.274Z,6.62
2019-05-18T06:17:40.797Z,5.62
2019-05-18T06:20:12.360Z,5.58
2019-05-18T06:22:43.864Z,5.47
2019-05-18T06:25:15.299Z,5.97
2019-05-18T06:27:46.845Z,6.08
2019-05-18T06:30:19.051Z,5.97
2019-05-18T06:32:50.572Z,5.85
2019-05-18T06:35:22.142Z,6.05
2019-05-18T06:37:53.655Z,6.08
2019-05-18T06:40:25.200Z,5.72
2019-05-18T06:42:56.614Z,5.83
2019-05-18T06:45:30.053Z,6.08
2019-05-18T06:48:03.756Z,6.33
2019-05-18T06:50:35.351Z,6.20
2019-05-18T06:53:07.825Z,6.62
2019-05-18T06:55:40.130Z,6.10
2019-05-18T06:58:12.679Z,6.22
2019-05-18T07:00:45.110Z,5.47
2019-05-18T07:03:16.512Z,5.62
2019-05-18T07:05:48.079Z,6.83
2019-05-18T07:08:20.631Z,6.40
2019-05-18T07:10:52.282Z,6.08
2019-05-18T07:13:23.903Z,6.20
2019-05-18T07:15:55.510Z,5.97
2019-05-18T07:18:27.022Z,6.42
2019-05-18T07:20:58.536Z,5.72
2019-05-18T07:23:30.007Z,6.42
2019-05-18T07:26:01.479Z,5.90
2019-05-18T07:28:33.063Z,6.17
2019-05-18T07:31:04.597Z,6.45
2019-05-18T07:33:36.039Z,5.90
2019-05-18T07:36:07.808Z,6.05
2019-05-18T07:38:40.281Z,5.90
2019-05-18T07:41:12.822Z,5.65
2019-05-18T07:43:44.392Z,6.03
2019-05-18T07:46:15.810Z,5.95
2019-05-18T07:48:47.207Z,5.97
2019-05-18T07:51:20.669Z,5.92
2019-05-18T07:53:52.291Z,6.00
2019-05-18T07:56:23.729Z,6.30
2019-05-18T07:58:57.282Z,5.92
2019-05-18T08:01:28.868Z,6.10
2019-05-18T08:04:00.585Z,5.58
2019-05-18T08:06:32.192Z,5.78
2019-05-18T08:09:04.620Z,5.83
2019-05-18T08:11:36.236Z,6.42
2019-05-18T08:14:07.768Z,6.53
2019-05-18T08:16:39.386Z,6.50
2019-05-18T08:19:10.931Z,6.40
2019-05-18T08:21:52.698Z,6.70
2019-05-18T08:24:15.740Z,6.53
2019-05-18T08:26:49.255Z,6.67
2019-05-18T08:29:20.970Z,6.78
2019-05-18T08:31:52.460Z,6.60
2019-05-18T08:34:24.082Z,6.78
2019-05-18T08:36:56.684Z,6.78
2019-05-18T08:39:28.163Z,6.70
2019-05-18T08:41:59.724Z,7.30
2019-05-18T08:44:31.320Z,6.78
2019-05-18T08:47:02.897Z,6.50
2019-05-18T08:49:36.037Z,6.17
2019-05-18T08:52:08.868Z,6.45
2019-05-18T08:54:41.608Z,6.80
2019-05-18T08:57:14.113Z,6.95
2019-05-18T08:59:45.577Z,6.33
2019-05-18T09:02:17.018Z,6.40
2019-05-18T09:04:48.598Z,6.50
2019-05-18T09:07:21.103Z,6.40
2019-05-18T09:09:54.405Z,6.70
2019-05-18T09:12:26.993Z,7.22
2019-05-18T09:14:59.607Z,7.42
2019-05-18T09:17:31.329Z,6.47
2019-05-18T09:20:03.505Z,7.22
2019-05-18T09:22:38.738Z,7.87
2019-05-18T09:25:12.382Z,6.95
2019-05-18T09:27:46.999Z,7.05
2019-05-18T09:30:18.822Z,7.22
2019-05-18T09:32:50.408Z,7.25
2019-05-18T09:35:22.953Z,6.55
2019-05-18T09:37:54.406Z,6.50
2019-05-18T09:40:26.218Z,7.33
2019-05-18T09:42:58.030Z,6.50
2019-05-18T09:45:29.600Z,6.12
2019-05-18T09:48:01.162Z,6.75
2019-05-18T09:50:32.766Z,6.97
2019-05-18T09:53:05.038Z,6.67
2019-05-18T09:55:37.952Z,6.85
2019-05-18T09:58:09.477Z,6.65
2019-05-18T10:00:41.024Z,6.97
2019-05-18T10:03:13.246Z,6.80
2019-05-18T10:05:46.432Z,6.28
2019-05-18T10:08:18.974Z,6.53
2019-05-18T10:10:50.682Z,7.22
2019-05-18T10:13:22.198Z,7.35
2019-05-18T10:15:53.882Z,7.28
2019-05-18T10:18:25.495Z,6.87
2019-05-18T10:20:57.038Z,7.05
2019-05-18T10:23:28.695Z,7.05
2019-05-18T10:26:00.428Z,7.28
2019-05-18T10:28:31.971Z,6.80
2019-05-18T10:31:03.637Z,6.87
2019-05-18T10:33:35.042Z,6.70
2019-05-18T10:36:11.522Z,6.75
2019-05-18T10:38:41.800Z,7.40
2019-05-18T10:41:13.325Z,7.00
2019-05-18T10:43:48.624Z,6.83
2019-05-18T10:46:24.667Z,7.45
2019-05-18T10:48:58.620Z,7.47
2019-05-18T10:51:30.321Z,7.12
2019-05-18T10:54:01.817Z,7.12
2019-05-18T10:56:38.706Z,6.55
2019-05-18T10:59:12.774Z,6.20
2019-05-18T11:01:47.956Z,6.45
2019-05-18T11:04:19.638Z,6.83
2019-05-18T11:06:51.156Z,6.80
2019-05-18T11:09:22.665Z,6.85
2019-05-18T11:11:54.258Z,7.55
2019-05-18T11:14:25.972Z,7.37
2019-05-18T11:16:58.510Z,6.45
2019-05-18T11:19:30.087Z,6.08
2019-05-18T11:22:03.497Z,6.33
2019-05-18T11:27:07.556Z,6.83
2019-05-18T11:29:39.430Z,6.28
2019-05-18T11:32:12.094Z,6.50
2019-05-18T11:34:44.004Z,6.92
2019-05-18T11:37:16.545Z,6.50
2019-05-18T11:39:48.023Z,6.50
2019-05-18T11:42:19.484Z,6.50
2019-05-18T11:44:51.041Z,7.30
2019-05-18T11:47:22.587Z,7.25
2019-05-18T11:49:57.816Z,6.67
2019-05-18T11:52:29.655Z,6.67
2019-05-18T11:55:05.039Z,6.00
2019-05-18T12:00:14.123Z,6.22
2019-05-18T12:02:45.731Z,6.33
2019-05-18T12:05:18.873Z,6.50
2019-05-18T12:07:50.531Z,6.05
2019-05-18T12:10:23.269Z,6.67
2019-05-18T12:12:56.536Z,6.80
2019-05-18T12:15:28.425Z,6.80
2019-05-18T12:18:00.015Z,6.58
2019-05-18T12:20:33.695Z,6.33
2019-05-18T12:23:08.411Z,7.22
2019-05-18T12:25:41.042Z,6.60
2019-05-18T12:28:12.645Z,7.08
2019-05-18T12:30:46.456Z,6.40
2019-05-18T12:33:17.996Z,6.58
2019-05-18T12:35:49.443Z,6.80
2019-05-18T12:38:22.806Z,7.15
2019-05-18T12:40:55.506Z,6.37
2019-05-18T12:43:27.128Z,5.75
2019-05-18T12:46:01.272Z,6.22
2019-05-18T12:51:04.546Z,6.22
2019-05-18T12:53:39.292Z,6.15
2019-05-18T12:56:10.754Z,6.03
2019-05-18T12:58:42.281Z,6.22
2019-05-18T13:01:13.836Z,6.80
2019-05-18T13:03:46.424Z,5.87
2019-05-18T13:06:20.269Z,6.15
2019-05-18T13:08:52.050Z,6.37
2019-05-18T13:11:24.670Z,6.80
2019-05-18T13:13:56.161Z,6.33
2019-05-18T13:16:31.305Z,5.97
2019-05-18T13:19:02.733Z,6.12
2019-05-18T13:21:40.186Z,6.00
2019-05-18T13:24:13.070Z,6.05
2019-05-18T13:27:00.288Z,6.53
2019-05-18T13:29:33.869Z,6.00
2019-05-18T13:32:06.499Z,6.58
2019-05-18T13:34:38.529Z,6.60
2019-05-18T13:37:10.180Z,5.90
2019-05-18T13:39:41.696Z,6.05
2019-05-18T13:42:13.235Z,6.33
2019-05-18T13:44:44.654Z,6.35
2019-05-18T13:47:16.213Z,6.20
2019-05-18T13:49:49.688Z,6.20
2019-05-18T13:52:23.207Z,5.83
2019-05-18T13:55:03.735Z,6.58
2019-05-18T13:57:29.404Z,6.13
2019-05-18T14:00:01.089Z,5.97
2019-05-18T14:02:32.663Z,5.90
2019-05-18T14:05:05.802Z,6.20
2019-05-18T14:07:37.814Z,6.10
2019-05-18T14:10:12.615Z,5.65
2019-05-18T14:12:44.361Z,5.60
2019-05-18T14:15:16.126Z,6.53
2019-05-18T14:17:48.737Z,6.42
2019-05-18T14:20:20.328Z,5.58
2019-05-18T14:22:52.099Z,5.58
2019-05-18T14:25:23.871Z,6.05
2019-05-18T14:27:55.430Z,6.05
2019-05-18T14:30:27.937Z,5.97
2019-05-18T14:32:59.317Z,5.97
2019-05-18T14:35:33.397Z,6.15
2019-05-18T14:38:04.417Z,5.73
2019-05-18T14:40:36.545Z,6.28
2019-05-18T14:43:09.137Z,5.80
2019-05-18T14:45:41.586Z,6.10
2019-05-18T14:48:13.020Z,6.12
2019-05-18T14:50:45.614Z,6.08
2019-05-18T14:53:18.157Z,6.28
2019-05-18T14:55:49.603Z,6.50
2019-05-18T14:58:22.321Z,5.83
2019-05-18T15:00:53.736Z,6.00
2019-05-18T15:03:25.174Z,6.03
2019-05-18T15:05:56.802Z,5.62
2019-05-18T15:08:28.255Z,5.90
2019-05-18T15:10:59.705Z,6.50
2019-05-18T15:13:32.424Z,6.03
2019-05-18T15:16:03.941Z,6.05
2019-05-18T15:18:35.938Z,5.75
2019-05-18T15:21:07.641Z,5.85
2019-05-18T15:23:40.141Z,5.12
2019-05-18T15:26:12.002Z,5.87
2019-05-18T15:28:43.472Z,6.03
2019-05-18T15:31:15.051Z,5.90
2019-05-18T15:33:46.594Z,5.70
2019-05-18T15:36:18.302Z,6.08
2019-05-18T15:38:49.806Z,6.12
2019-05-18T15:41:21.244Z,5.83
2019-05-18T15:43:54.293Z,5.78
2019-05-18T15:46:25.793Z,5.60
2019-05-18T15:48:57.383Z,5.37
2019-05-18T15:51:28.803Z,5.42
2019-05-18T15:54:01.802Z,5.90
2019-05-18T15:56:33.571Z,5.83
2019-05-18T15:59:05.230Z,5.67
2019-05-18T16:01:36.648Z,5.67
2019-05-18T16:04:10.259Z,5.60
2019-05-18T16:06:41.740Z,5.45
2019-05-18T16:09:14.323Z,5.62
2019-05-18T16:11:45.795Z,6.05
2019-05-18T16:14:18.446Z,6.20
2019-05-18T16:16:54.684Z,5.60
2019-05-18T16:19:23.177Z,5.60
2019-05-18T16:21:54.711Z,5.72
2019-05-18T16:24:26.159Z,5.53
2019-05-18T16:26:57.722Z,5.92
2019-05-18T16:29:29.261Z,5.83
2019-05-18T16:32:00.680Z,5.35
2019-05-18T16:34:32.083Z,5.25
2019-05-18T16:37:04.988Z,5.20
2019-05-18T16:39:38.506Z,5.30
2019-05-18T16:42:10.220Z,5.03
2019-05-18T16:44:41.769Z,5.42
2019-05-18T16:47:13.255Z,5.20
2019-05-18T16:49:46.766Z,5.55
2019-05-18T16:52:19.295Z,5.22
2019-05-18T16:54:50.759Z,5.78
2019-05-18T16:57:22.183Z,5.72
2019-05-18T16:59:54.771Z,6.08
2019-05-18T17:02:31.515Z,6.00
2019-05-18T17:04:59.652Z,5.97
2019-05-18T17:07:32.151Z,5.55
2019-05-18T17:10:06.375Z,5.75
2019-05-18T17:12:38.037Z,5.47
2019-05-18T17:15:10.157Z,5.60
2019-05-18T17:17:41.690Z,5.47
2019-05-18T17:20:14.520Z,5.85
2019-05-18T17:22:47.029Z,5.80
2019-05-18T17:25:18.559Z,6.08
2019-05-18T17:27:50.961Z,6.00
2019-05-18T17:30:22.590Z,5.70
2019-05-18T17:32:54.577Z,5.50
2019-05-18T17:35:26.072Z,5.80
2019-05-18T17:37:57.540Z,5.55
2019-05-18T17:40:28.992Z,6.30
2019-05-18T17:43:00.780Z,6.03
2019-05-18T17:45:32.756Z,6.30
2019-05-18T17:48:04.359Z,6.40
2019-05-18T17:50:36.972Z,6.83
2019-05-18T17:53:08.558Z,7.08
2019-05-18T17:55:41.237Z,6.92
2019-05-18T17:58:12.708Z,6.85
2019-05-18T18:00:45.389Z,6.95
2019-05-18T18:03:17.020Z,7.30
2019-05-18T18:05:49.520Z,6.58
2019-05-18T18:08:21.080Z,6.67
2019-05-18T18:10:52.496Z,6.83
2019-05-18T18:13:25.017Z,6.55
2019-05-18T18:15:56.555Z,6.72
2019-05-18T18:18:29.331Z,7.03
2019-05-18T18:21:01.533Z,7.03
2019-05-18T18:23:33.088Z,8.13
2019-05-18T18:26:04.612Z,7.33
2019-05-18T18:28:37.000Z,6.62
2019-05-18T18:31:08.448Z,6.03
2019-05-18T18:33:40.629Z,6.20
2019-05-18T18:36:14.186Z,5.90
2019-05-18T18:38:45.932Z,6.03
2019-05-18T18:41:18.780Z,6.35
2019-05-18T18:43:50.320Z,6.70
2019-05-18T18:46:21.878Z,6.30
2019-05-18T18:48:53.717Z,6.30
2019-05-18T18:51:25.590Z,6.80
2019-05-18T18:53:57.321Z,6.60
2019-05-18T18:56:28.905Z,6.65
2019-05-18T18:59:00.430Z,6.35
2019-05-18T19:01:33.039Z,6.37
2019-05-18T19:04:04.511Z,6.67
2019-05-18T19:06:36.236Z,6.33
2019-05-18T19:09:08.477Z,6.55
2019-05-18T19:11:42.061Z,6.97
2019-05-18T19:14:13.735Z,5.93
2019-05-18T19:16:46.231Z,6.47
2019-05-18T19:19:18.142Z,6.03
2019-05-18T19:21:50.841Z,6.08
2019-05-18T19:24:23.531Z,5.85
2019-05-18T19:26:55.483Z,6.30
2019-05-18T19:29:27.022Z,6.67
2019-05-18T19:31:58.610Z,7.15
2019-05-18T19:34:30.293Z,5.97
2019-05-18T19:37:04.995Z,6.17
2019-05-18T19:42:10.243Z,6.22
2019-05-18T19:44:43.015Z,5.87
2019-05-18T19:47:14.623Z,5.95
2019-05-18T19:49:46.410Z,6.42
2019-05-18T19:52:19.245Z,6.10
2019-05-18T19:54:52.853Z,5.42
2019-05-18T19:57:26.305Z,6.97
2019-05-18T19:59:57.858Z,5.83
2019-05-18T20:02:29.309Z,6.72
2019-05-18T20:05:07.817Z,7.15
2019-05-18T20:07:36.077Z,6.60
2019-05-18T20:10:10.599Z,6.30
2019-05-18T20:12:44.479Z,6.42
2019-05-18T20:15:17.017Z,6.40
2019-05-18T20:17:48.575Z,6.03
2019-05-18T20:20:20.100Z,6.10
2019-05-18T20:22:51.722Z,6.03
2019-05-18T20:25:23.545Z,6.30
2019-05-18T20:27:56.007Z,6.45
2019-05-18T20:30:28.601Z,6.08
2019-05-18T20:33:00.259Z,6.17
2019-05-18T20:35:34.196Z,6.40
2019-05-18T20:38:08.220Z,6.37
2019-05-18T20:40:40.960Z,7.15
2019-05-18T20:43:12.702Z,6.10
2019-05-18T20:45:47.959Z,6.55
2019-05-18T20:48:19.604Z,7.05
2019-05-18T20:50:51.625Z,6.90
2019-05-18T20:53:23.131Z,6.85
2019-05-18T20:55:56.784Z,6.92
2019-05-18T20:58:39.605Z,6.53
2019-05-18T21:01:01.915Z,6.12
2019-05-18T21:03:38.411Z,6.83
2019-05-18T21:06:11.212Z,5.90
2019-05-18T21:08:43.693Z,6.45
2019-05-18T21:11:15.182Z,5.90
2019-05-18T21:13:46.696Z,5.95
2019-05-18T21:16:19.282Z,6.22
2019-05-18T21:18:51.395Z,6.78
2019-05-18T21:21:25.611Z,6.97
2019-05-18T21:23:56.690Z,6.20
2019-05-18T21:26:30.701Z,6.22
2019-05-18T21:29:03.788Z,5.90
2019-05-18T21:31:36.478Z,5.70
2019-05-18T21:34:10.381Z,5.70
2019-05-18T21:36:42.039Z,5.37
2019-05-18T21:39:14.657Z,6.20
2019-05-18T21:41:46.083Z,6.65
2019-05-18T21:44:18.762Z,6.30
2019-05-18T21:46:50.332Z,6.20
2019-05-18T21:49:22.057Z,6.30
2019-05-18T21:51:55.599Z,6.15
2019-05-18T21:54:27.012Z,5.85
2019-05-18T21:56:59.077Z,6.05
2019-05-18T21:59:30.708Z,5.70
2019-05-18T22:02:03.076Z,5.40
2019-05-18T22:04:34.646Z,6.12
2019-05-18T22:07:06.301Z,5.03
2019-05-18T22:09:38.687Z,4.97
2019-05-18T22:12:11.495Z,5.62
2019-05-18T22:14:43.022Z,4.90
2019-05-18T22:17:14.447Z,4.95
2019-05-18T22:19:46.779Z,4.62
2019-05-18T22:22:18.301Z,4.95
2019-05-18T22:24:50.823Z,5.12
2019-05-18T22:27:23.188Z,5.15
2019-05-18T22:29:54.668Z,4.70
2019-05-18T22:32:26.230Z,4.92
2019-05-18T22:34:58.686Z,4.87
2019-05-18T22:37:30.500Z,4.20
2019-05-18T22:40:02.043Z,4.85
2019-05-18T22:42:34.708Z,4.80
2019-05-18T22:45:10.469Z,4.30
2019-05-18T22:47:45.685Z,4.75
2019-05-18T22:50:17.324Z,4.58
2019-05-18T22:52:49.904Z,4.20
2019-05-18T22:55:23.827Z,4.47
2019-05-18T22:57:57.790Z,4.28
2019-05-18T23:00:29.481Z,4.55
2019-05-18T23:03:02.087Z,4.72
2019-05-18T23:05:33.636Z,4.70
2019-05-18T23:08:09.026Z,4.67
2019-05-18T23:10:41.430Z,4.80
2019-05-18T23:13:13.945Z,4.85
2019-05-18T23:15:47.588Z,4.78
2019-05-18T23:18:19.124Z,4.60
2019-05-18T23:20:50.675Z,4.60
2019-05-18T23:23:23.352Z,4.20
2019-05-18T23:25:55.930Z,3.83
2019-05-18T23:28:28.170Z,3.83
2019-05-18T23:31:03.361Z,3.70
2019-05-18T23:33:37.948Z,3.85
2019-05-18T23:36:09.781Z,4.00
2019-05-18T23:38:41.199Z,3.77
2019-05-18T23:41:13.248Z,3.27
2019-05-18T23:43:44.720Z,3.22
2019-05-18T23:46:16.813Z,3.47
2019-05-18T23:48:48.340Z,3.30
2019-05-18T23:51:20.785Z,3.50
2019-05-18T23:53:53.863Z,3.80
2019-05-18T23:56:25.497Z,3.72
2019-05-18T23:58:57.992Z,3.50
